createdAt,value
2019-06-26T00:00:19.594Z,17.17
2019-06-26T00:02:50.691Z,19.77
2019-06-26T00:05:22.185Z,18.85
2019-06-26T00:07:54.264Z,16.52
2019-06-26T00:10:24.780Z,16.27
2019-06-26T00:12:58.240Z,19.48
2019-06-26T00:15:29.808Z,17.10
2019-06-26T00:18:03.763Z,17.05
2019-06-26T00:20:36.769Z,18.65
2019-06-26T00:23:07.233Z,18.13
2019-06-26T00:25:39.812Z,16.23
2019-06-26T00:28:11.255Z,16.97
2019-06-26T00:30:42.755Z,16.07
2019-06-26T00:33:16.117Z,16.23
2019-06-26T00:35:46.869Z,17.12
2019-06-26T00:38:18.615Z,17.17
2019-06-26T00:40:49.781Z,17.77
2019-06-26T00:43:22.484Z,17.27
2019-06-26T00:45:54.147Z,15.90
2019-06-26T00:48:25.223Z,17.85
2019-06-26T00:50:56.352Z,18.00
2019-06-26T00:53:30.398Z,16.67
2019-06-26T00:56:01.076Z,16.50
2019-06-26T00:58:32.017Z,16.30
2019-06-26T01:01:03.508Z,17.82
2019-06-26T01:03:35.026Z,16.50
2019-06-26T01:06:10.096Z,16.62
2019-06-26T01:08:40.587Z,15.48
2019-06-26T01:11:12.723Z,17.50
2019-06-26T01:13:57.287Z,16.60
2019-06-26T01:16:16.602Z,16.45
2019-06-26T01:18:47.606Z,17.05
2019-06-26T01:21:18.143Z,17.57
2019-06-26T01:23:48.763Z,16.75
2019-06-26T01:26:20.744Z,18.12
2019-06-26T01:28:52.457Z,16.95
2019-06-26T01:31:23.726Z,16.07
2019-06-26T01:33:54.841Z,17.40
2019-06-26T01:36:25.367Z,15.90
2019-06-26T01:38:56.550Z,16.73
2019-06-26T01:41:27.080Z,16.07
2019-06-26T01:44:10.571Z,16.20
2019-06-26T01:46:30.504Z,16.82
2019-06-26T01:49:00.989Z,17.70
2019-06-26T01:51:32.158Z,16.07
2019-06-26T01:54:03.074Z,16.75
2019-06-26T01:56:34.015Z,17.52
2019-06-26T01:59:05.706Z,17.48
2019-06-26T02:01:36.641Z,17.00
2019-06-26T02:04:07.163Z,17.37
2019-06-26T02:06:37.727Z,17.67
2019-06-26T02:09:09.836Z,16.62
2019-06-26T02:11:41.932Z,17.70
2019-06-26T02:14:12.989Z,17.80
2019-06-26T02:16:44.184Z,18.62
2019-06-26T02:19:17.042Z,17.25
2019-06-26T02:21:51.197Z,18.40
2019-06-26T02:24:21.792Z,17.77
2019-06-26T02:26:52.928Z,17.27
2019-06-26T02:29:24.381Z,18.15
2019-06-26T02:31:55.571Z,17.17
2019-06-26T02:34:27.130Z,17.57
2019-06-26T02:36:58.465Z,18.17
2019-06-26T02:39:28.952Z,16.52
2019-06-26T02:42:00.634Z,16.87
2019-06-26T02:44:47.127Z,17.25
2019-06-26T02:47:18.478Z,16.65
2019-06-26T02:49:37.759Z,16.52
2019-06-26T02:52:09.526Z,16.05
2019-06-26T02:54:42.043Z,16.80
2019-06-26T02:57:13.245Z,17.52
2019-06-26T02:59:45.123Z,18.67
2019-06-26T03:02:16.281Z,16.70
2019-06-26T03:04:47.303Z,19.87
2019-06-26T03:07:18.188Z,18.80
2019-06-26T03:09:48.943Z,18.02
2019-06-26T03:12:21.130Z,16.25
2019-06-26T03:15:04.661Z,17.67
2019-06-26T03:17:24.271Z,18.70
2019-06-26T03:19:55.107Z,16.87
2019-06-26T03:22:26.470Z,16.57
2019-06-26T03:24:57.197Z,17.02
2019-06-26T03:27:28.020Z,17.90
2019-06-26T03:29:58.626Z,17.82
2019-06-26T03:32:32.592Z,16.80
2019-06-26T03:35:03.515Z,18.50
2019-06-26T03:37:34.075Z,18.05
2019-06-26T03:40:05.243Z,18.92
2019-06-26T03:42:35.934Z,19.50
2019-06-26T03:45:24.095Z,18.30
2019-06-26T03:47:41.705Z,18.12
2019-06-26T03:50:12.457Z,18.02
2019-06-26T03:52:45.333Z,17.67
2019-06-26T03:55:15.920Z,16.53
2019-06-26T03:57:47.078Z,17.37
2019-06-26T04:00:26.304Z,17.82
2019-06-26T04:02:56.979Z,18.45
2019-06-26T04:05:27.765Z,17.73
2019-06-26T04:07:59.747Z,17.83
2019-06-26T04:10:30.392Z,17.17
2019-06-26T04:13:01.280Z,18.87
2019-06-26T04:15:41.615Z,18.97
2019-06-26T04:18:04.506Z,20.75
2019-06-26T04:20:35.551Z,21.02
2019-06-26T04:23:06.399Z,19.02
2019-06-26T04:25:38.414Z,19.55
2019-06-26T04:28:09.713Z,20.20
2019-06-26T04:30:40.222Z,21.62
2019-06-26T04:33:10.796Z,20.50
2019-06-26T04:35:41.506Z,20.88
2019-06-26T04:38:12.243Z,21.82
2019-06-26T04:40:43.292Z,17.45
2019-06-26T04:43:14.369Z,16.40
2019-06-26T04:45:57.643Z,20.00
2019-06-26T04:48:18.856Z,18.60
2019-06-26T04:50:49.672Z,18.43
2019-06-26T04:53:20.299Z,20.12
2019-06-26T04:55:51.412Z,17.00
2019-06-26T04:58:21.962Z,18.50
2019-06-26T05:00:57.374Z,21.40
2019-06-26T05:03:28.362Z,19.75
2019-06-26T05:05:58.914Z,17.50
2019-06-26T05:08:29.571Z,20.43
2019-06-26T05:11:01.965Z,20.30
2019-06-26T05:13:33.680Z,20.77
2019-06-26T05:16:15.084Z,19.90
2019-06-26T05:18:39.669Z,20.80
2019-06-26T05:21:10.737Z,22.32
2019-06-26T05:23:41.724Z,21.27
2019-06-26T05:26:12.849Z,23.13
2019-06-26T05:28:43.781Z,21.85
2019-06-26T05:31:14.784Z,21.30
2019-06-26T05:33:45.373Z,21.20
2019-06-26T05:36:16.025Z,21.20
2019-06-26T05:38:46.653Z,23.32
2019-06-26T05:41:17.475Z,20.12
2019-06-26T05:43:48.168Z,22.17
2019-06-26T05:46:30.568Z,23.42
2019-06-26T05:48:51.723Z,22.45
2019-06-26T05:51:22.682Z,21.35
2019-06-26T05:53:53.309Z,24.12
2019-06-26T05:56:24.496Z,25.32
2019-06-26T05:58:55.368Z,24.63
2019-06-26T06:01:26.790Z,23.20
2019-06-26T06:03:57.688Z,28.83
2019-06-26T06:06:40.984Z,24.77
2019-06-26T06:09:00.478Z,23.07
2019-06-26T06:11:31.437Z,25.37
2019-06-26T06:14:02.428Z,26.87
2019-06-26T06:16:46.437Z,25.62
2019-06-26T06:19:06.341Z,25.68
2019-06-26T06:21:36.936Z,27.82
2019-06-26T06:24:07.514Z,30.70
2019-06-26T06:26:39.378Z,27.40
2019-06-26T06:29:09.895Z,30.10
2019-06-26T06:31:40.536Z,34.55
2019-06-26T06:34:13.266Z,30.23
2019-06-26T06:36:43.897Z,30.20
2019-06-26T06:39:14.602Z,31.95
2019-06-26T06:41:45.312Z,32.33
2019-06-26T06:44:15.948Z,29.30
2019-06-26T06:47:02.623Z,29.65
2019-06-26T06:49:22.835Z,31.00
2019-06-26T06:51:53.425Z,32.38
2019-06-26T06:54:24.463Z,32.50
2019-06-26T06:56:55.102Z,35.98
2019-06-26T06:59:26.327Z,30.68
2019-06-26T07:01:59.942Z,33.83
2019-06-26T07:04:30.543Z,31.77
2019-06-26T07:07:03.071Z,29.10
2019-06-26T07:09:37.277Z,29.00
2019-06-26T07:15:57.514Z,34.33
2019-06-26T07:18:28.520Z,38.53
2019-06-26T07:20:59.323Z,52.05
2019-06-26T07:23:33.342Z,48.33
2019-06-26T07:26:05.766Z,36.10
2019-06-26T07:28:36.508Z,38.17
2019-06-26T07:31:09.928Z,36.98
2019-06-26T07:33:40.673Z,32.90
2019-06-26T07:36:11.471Z,33.38
2019-06-26T07:38:42.484Z,32.40
2019-06-26T07:41:12.993Z,33.08
2019-06-26T07:43:44.391Z,30.63
2019-06-26T07:46:16.199Z,28.20
2019-06-26T07:48:46.959Z,29.35
2019-06-26T07:51:17.952Z,26.05
2019-06-26T07:53:49.731Z,31.62
2019-06-26T07:56:20.319Z,30.77
2019-06-26T07:58:51.020Z,30.45
2019-06-26T08:01:21.873Z,29.23
2019-06-26T08:03:59.755Z,28.27
2019-06-26T08:06:30.718Z,28.45
2019-06-26T08:09:05.027Z,27.00
2019-06-26T08:11:36.660Z,30.20
2019-06-26T08:14:09.145Z,31.55
2019-06-26T08:16:40.017Z,26.33
2019-06-26T08:19:10.789Z,29.20
2019-06-26T08:21:41.313Z,28.52
2019-06-26T08:24:11.971Z,30.05
2019-06-26T08:26:42.558Z,26.20
2019-06-26T08:29:13.129Z,26.02
2019-06-26T08:31:46.543Z,28.40
2019-06-26T08:34:17.173Z,26.97
2019-06-26T08:36:54.887Z,25.40
2019-06-26T08:46:37.850Z,22.87
2019-06-26T08:49:24.388Z,25.17
2019-06-26T08:51:45.491Z,24.57
2019-06-26T08:54:16.063Z,22.85
2019-06-26T08:56:54.474Z,23.10
2019-06-26T08:59:26.171Z,23.27
2019-06-26T09:01:56.810Z,22.55
2019-06-26T09:04:29.258Z,25.30
2019-06-26T09:07:56.103Z,24.32
2019-06-26T09:10:29.104Z,23.77
2019-06-26T09:13:00.147Z,24.80
2019-06-26T09:15:30.712Z,23.42
2019-06-26T09:18:07.226Z,20.37
2019-06-26T09:20:45.390Z,22.02
2019-06-26T09:23:16.916Z,23.53
2019-06-26T09:25:47.650Z,21.43
2019-06-26T09:28:18.472Z,18.98
2019-06-26T09:30:51.319Z,18.55
2019-06-26T09:33:25.244Z,18.77
2019-06-26T09:36:13.600Z,17.07
2019-06-26T09:39:31.753Z,17.23
2019-06-26T09:42:05.561Z,16.97
2019-06-26T09:44:36.209Z,18.32
2019-06-26T09:47:06.942Z,15.75
2019-06-26T09:49:37.728Z,16.80
2019-06-26T09:52:10.343Z,15.03
2019-06-26T09:54:42.567Z,16.30
2019-06-26T09:57:13.958Z,15.28
2019-06-26T09:59:47.269Z,21.95
2019-06-26T10:02:17.899Z,16.03
2019-06-26T10:04:48.749Z,16.27
2019-06-26T10:07:26.511Z,14.83
2019-06-26T10:09:58.388Z,15.67
2019-06-26T10:12:28.988Z,21.25
2019-06-26T10:15:04.801Z,14.68
2019-06-26T10:17:37.734Z,14.98
2019-06-26T10:20:09.867Z,16.70
2019-06-26T10:22:40.510Z,15.28
2019-06-26T10:25:12.297Z,13.98
2019-06-26T10:27:43.876Z,14.98
2019-06-26T10:30:16.352Z,13.48
2019-06-26T10:32:47.209Z,14.20
2019-06-26T10:35:18.331Z,15.68
2019-06-26T10:37:49.371Z,12.80
2019-06-26T10:40:21.607Z,12.28
2019-06-26T10:42:57.381Z,13.83
2019-06-26T10:45:30.216Z,13.88
2019-06-26T10:48:10.652Z,9.78
2019-06-26T10:50:58.823Z,15.43
2019-06-26T10:53:31.259Z,11.75
2019-06-26T10:56:02.316Z,10.82
2019-06-26T10:58:32.880Z,11.20
2019-06-26T11:01:03.933Z,11.35
2019-06-26T11:03:36.444Z,10.23
2019-06-26T11:06:07.264Z,9.35
2019-06-26T11:08:38.839Z,9.63
2019-06-26T11:11:09.450Z,10.58
2019-06-26T11:13:40.579Z,10.23
2019-06-26T11:16:12.440Z,9.73
2019-06-26T11:18:45.371Z,10.32
2019-06-26T11:21:17.906Z,11.75
2019-06-26T11:23:55.720Z,7.80
2019-06-26T11:26:27.583Z,7.92
2019-06-26T11:28:58.757Z,7.55
2019-06-26T11:31:29.951Z,14.33
2019-06-26T11:34:01.083Z,11.85
2019-06-26T11:36:31.996Z,10.50
2019-06-26T11:39:03.295Z,9.50
2019-06-26T11:41:41.150Z,9.80
2019-06-26T11:44:14.494Z,7.95
2019-06-26T11:46:47.578Z,9.48
2019-06-26T11:49:55.724Z,11.08
2019-06-26T11:52:18.351Z,8.15
2019-06-26T11:55:01.763Z,7.65
2019-06-26T11:57:22.935Z,7.83
2019-06-26T11:59:54.269Z,6.33
2019-06-26T12:02:30.290Z,8.60
2019-06-26T12:05:01.551Z,8.88
2019-06-26T12:07:32.996Z,6.30
2019-06-26T12:10:04.915Z,6.47
2019-06-26T12:12:36.879Z,5.90
2019-06-26T12:15:07.975Z,6.55
2019-06-26T12:17:39.495Z,6.92
2019-06-26T12:20:18.515Z,5.37
2019-06-26T12:22:44.338Z,5.53
2019-06-26T12:25:16.840Z,5.77
2019-06-26T12:27:48.519Z,5.70
2019-06-26T12:30:19.597Z,5.58
2019-06-26T12:33:02.144Z,6.40
2019-06-26T12:35:22.541Z,6.58
2019-06-26T12:37:53.115Z,5.57
2019-06-26T12:40:23.799Z,6.37
2019-06-26T12:42:55.808Z,6.37
2019-06-26T12:45:28.156Z,5.47
2019-06-26T12:47:58.771Z,7.53
2019-06-26T12:50:35.488Z,7.08
2019-06-26T12:53:01.657Z,7.03
2019-06-26T12:55:33.115Z,6.60
2019-06-26T12:58:13.214Z,9.48
2019-06-26T13:00:36.759Z,6.65
2019-06-26T13:03:07.594Z,8.03
2019-06-26T13:05:39.448Z,6.25
2019-06-26T13:08:10.253Z,7.85
2019-06-26T13:10:49.414Z,7.05
2019-06-26T13:13:16.852Z,7.30
2019-06-26T13:15:50.937Z,8.38
2019-06-26T13:18:20.363Z,7.40
2019-06-26T13:20:57.665Z,6.87
2019-06-26T13:23:32.685Z,6.27
2019-06-26T13:26:03.897Z,6.30
2019-06-26T13:28:36.119Z,5.65
2019-06-26T13:31:06.728Z,5.95
2019-06-26T13:33:37.488Z,5.80
2019-06-26T13:36:08.080Z,6.35
2019-06-26T13:38:38.904Z,6.35
2019-06-26T13:41:19.123Z,6.80
2019-06-26T13:43:59.146Z,7.03
2019-06-26T13:46:29.541Z,7.05
2019-06-26T13:49:00.178Z,6.03
2019-06-26T13:51:30.703Z,5.70
2019-06-26T13:54:01.179Z,6.90
2019-06-26T13:56:32.644Z,7.30
2019-06-26T13:59:07.298Z,7.83
2019-06-26T14:01:36.506Z,6.55
2019-06-26T14:04:07.786Z,7.85
2019-06-26T14:06:39.046Z,5.78
2019-06-26T14:09:09.624Z,5.67
2019-06-26T14:11:40.151Z,6.17
2019-06-26T14:14:11.498Z,6.40
2019-06-26T14:16:42.057Z,6.30
2019-06-26T14:19:31.778Z,6.90
2019-06-26T14:22:13.089Z,7.25
2019-06-26T14:24:45.456Z,8.98
2019-06-26T14:27:17.333Z,7.95
2019-06-26T14:29:49.296Z,6.80
2019-06-26T14:32:20.170Z,6.80
2019-06-26T14:34:52.029Z,8.08
2019-06-26T14:37:25.450Z,8.03
2019-06-26T14:39:56.246Z,8.38
2019-06-26T14:42:29.573Z,8.65
2019-06-26T14:45:00.713Z,8.38
2019-06-26T14:47:35.428Z,9.53
2019-06-26T14:50:08.290Z,9.63
2019-06-26T14:52:39.154Z,9.50
2019-06-26T14:55:10.862Z,9.33
2019-06-26T14:57:41.968Z,10.98
2019-06-26T15:00:17.328Z,10.48
2019-06-26T15:02:48.305Z,10.23
2019-06-26T15:05:19.447Z,10.05
2019-06-26T15:07:50.783Z,11.85
2019-06-26T15:10:21.602Z,10.80
2019-06-26T15:12:52.286Z,11.68
2019-06-26T15:15:22.768Z,9.80
2019-06-26T15:17:54.130Z,9.60
2019-06-26T15:20:25.470Z,9.97
2019-06-26T15:22:58.749Z,8.63
2019-06-26T15:25:28.574Z,9.33
2019-06-26T15:27:59.150Z,9.60
2019-06-26T15:30:29.745Z,9.33
2019-06-26T15:33:01.717Z,8.98
2019-06-26T15:35:33.684Z,7.97
2019-06-26T15:38:04.948Z,6.35
2019-06-26T15:40:35.597Z,8.50
2019-06-26T15:43:06.183Z,7.67
2019-06-26T15:45:37.057Z,8.63
2019-06-26T15:48:08.170Z,7.80
2019-06-26T15:50:38.690Z,8.50
2019-06-26T15:53:11.248Z,8.53
2019-06-26T15:55:42.071Z,8.48
2019-06-26T15:58:13.408Z,7.33
2019-06-26T16:00:44.043Z,9.10
2019-06-26T16:03:15.647Z,9.40
2019-06-26T16:05:46.828Z,9.00
2019-06-26T16:08:17.740Z,8.58
2019-06-26T16:10:48.366Z,9.95
2019-06-26T16:13:19.017Z,9.55
2019-06-26T16:15:50.027Z,9.05
2019-06-26T16:18:31.366Z,8.73
2019-06-26T16:21:02.049Z,8.13
2019-06-26T16:23:32.742Z,9.50
2019-06-26T16:26:03.464Z,8.00
2019-06-26T16:28:37.367Z,9.47
2019-06-26T16:31:08.384Z,8.60
2019-06-26T16:33:39.156Z,8.80
2019-06-26T16:36:09.947Z,8.15
2019-06-26T16:38:41.092Z,9.00
2019-06-26T16:41:12.114Z,10.90
2019-06-26T16:43:46.793Z,8.83
2019-06-26T16:46:17.808Z,9.20
2019-06-26T16:48:48.771Z,8.58
2019-06-26T16:51:19.380Z,9.20
2019-06-26T16:53:49.930Z,9.08
2019-06-26T16:56:20.522Z,9.05
2019-06-26T16:58:51.412Z,9.53
2019-06-26T17:01:22.692Z,9.70
2019-06-26T17:03:56.241Z,13.43
2019-06-26T17:06:26.017Z,7.85
2019-06-26T17:08:56.619Z,7.37
2019-06-26T17:11:27.371Z,10.95
2019-06-26T17:13:58.150Z,8.48
2019-06-26T17:16:29.082Z,8.08
2019-06-26T17:19:01.566Z,8.33
2019-06-26T17:21:32.189Z,8.15
2019-06-26T17:24:02.853Z,8.55
2019-06-26T17:26:33.565Z,7.33
2019-06-26T17:29:04.286Z,8.85
2019-06-26T17:31:34.856Z,6.65
2019-06-26T17:34:05.707Z,7.97
2019-06-26T17:36:36.642Z,7.05
2019-06-26T17:39:07.774Z,7.30
2019-06-26T17:41:43.861Z,7.30
2019-06-26T17:44:10.874Z,6.65
2019-06-26T17:46:42.225Z,6.05
2019-06-26T17:49:13.094Z,7.33
2019-06-26T17:51:44.016Z,9.00
2019-06-26T17:54:14.723Z,6.30
2019-06-26T17:56:48.525Z,6.80
2019-06-26T17:59:19.895Z,8.78
2019-06-26T18:01:52.296Z,10.15
2019-06-26T18:04:23.211Z,7.23
2019-06-26T18:06:53.953Z,7.37
2019-06-26T18:09:24.583Z,8.65
2019-06-26T18:11:57.622Z,8.20
2019-06-26T18:14:28.225Z,9.33
2019-06-26T18:16:59.147Z,7.65
2019-06-26T18:19:29.860Z,7.90
2019-06-26T18:22:00.515Z,8.63
2019-06-26T18:24:32.550Z,7.85
2019-06-26T18:27:04.131Z,7.03
2019-06-26T18:29:34.766Z,7.20
2019-06-26T18:32:05.371Z,8.40
2019-06-26T18:34:38.755Z,7.30
2019-06-26T18:37:10.067Z,7.05
2019-06-26T18:39:42.517Z,8.83
2019-06-26T18:42:13.373Z,11.13
2019-06-26T18:44:44.202Z,7.83
2019-06-26T18:47:14.736Z,8.28
2019-06-26T18:49:45.266Z,11.25
2019-06-26T18:52:21.209Z,8.85
2019-06-26T18:54:52.670Z,8.93
2019-06-26T18:57:23.307Z,9.73
2019-06-26T18:59:54.960Z,10.08
2019-06-26T19:02:25.968Z,7.50
2019-06-26T19:04:56.706Z,9.45
2019-06-26T19:07:27.624Z,8.90
2019-06-26T19:09:59.217Z,10.58
2019-06-26T19:12:32.076Z,8.48
2019-06-26T19:15:05.114Z,9.60
2019-06-26T19:17:42.457Z,13.65
2019-06-26T19:20:13.002Z,13.83
2019-06-26T19:22:47.369Z,11.55
2019-06-26T19:25:16.541Z,10.58
2019-06-26T19:27:47.112Z,9.33
2019-06-26T19:30:19.410Z,10.40
2019-06-26T19:32:50.676Z,10.40
2019-06-26T19:35:21.288Z,10.98
2019-06-26T19:37:52.498Z,10.43
2019-06-26T19:40:24.252Z,10.58
2019-06-26T19:42:55.367Z,11.60
2019-06-26T19:45:26.367Z,9.83
2019-06-26T19:47:57.760Z,10.85
2019-06-26T19:50:28.396Z,9.70
2019-06-26T19:52:59.797Z,14.87
2019-06-26T19:55:30.336Z,12.28
2019-06-26T19:58:00.791Z,9.47
2019-06-26T20:00:31.393Z,12.03
2019-06-26T20:03:02.004Z,10.35
2019-06-26T20:05:32.708Z,11.18
2019-06-26T20:08:03.360Z,12.17
2019-06-26T20:10:33.842Z,10.23
2019-06-26T20:13:04.478Z,12.40
2019-06-26T20:15:35.703Z,11.25
2019-06-26T20:18:06.674Z,9.75
2019-06-26T20:20:38.034Z,11.28
2019-06-26T20:23:08.649Z,11.03
2019-06-26T20:25:39.637Z,13.20
2019-06-26T20:28:10.098Z,10.45
2019-06-26T20:30:40.616Z,11.60
2019-06-26T20:33:11.152Z,13.08
2019-06-26T20:35:42.954Z,13.68
2019-06-26T20:38:14.533Z,14.58
2019-06-26T20:40:46.170Z,12.82
2019-06-26T20:43:18.301Z,12.85
2019-06-26T20:45:48.804Z,12.00
2019-06-26T20:48:19.975Z,11.60
2019-06-26T20:50:50.527Z,11.30
2019-06-26T20:53:21.423Z,12.18
2019-06-26T20:55:52.925Z,13.43
2019-06-26T20:58:25.911Z,12.53
2019-06-26T21:00:56.456Z,10.90
2019-06-26T21:03:27.175Z,10.82
2019-06-26T21:05:57.738Z,13.30
2019-06-26T21:08:29.564Z,11.22
2019-06-26T21:11:03.114Z,11.10
2019-06-26T21:13:34.700Z,13.20
2019-06-26T21:16:05.262Z,12.37
2019-06-26T21:18:35.810Z,12.13
2019-06-26T21:21:07.022Z,10.73
2019-06-26T21:23:39.443Z,14.85
2019-06-26T21:26:10.431Z,12.70
2019-06-26T21:28:43.384Z,11.33
2019-06-26T21:31:14.270Z,11.85
2019-06-26T21:33:44.864Z,13.55
2019-06-26T21:36:15.767Z,11.93
2019-06-26T21:38:46.287Z,12.30
2019-06-26T21:41:16.911Z,13.18
2019-06-26T21:43:47.882Z,13.62
2019-06-26T21:46:18.489Z,12.95
2019-06-26T21:48:51.521Z,12.23
2019-06-26T21:51:22.822Z,11.83
2019-06-26T21:53:53.895Z,11.33
2019-06-26T21:56:24.485Z,11.63
2019-06-26T21:58:55.035Z,11.90
2019-06-26T22:01:31.024Z,11.67
2019-06-26T22:04:02.604Z,10.88
2019-06-26T22:06:33.262Z,12.78
2019-06-26T22:09:05.175Z,12.75
2019-06-26T22:11:35.829Z,12.30
2019-06-26T22:14:06.388Z,12.37
2019-06-26T22:16:38.711Z,12.73
2019-06-26T22:19:09.354Z,12.55
2019-06-26T22:21:40.235Z,11.48
2019-06-26T22:24:10.906Z,12.70
2019-06-26T22:26:43.086Z,11.40
2019-06-26T22:29:13.603Z,12.63
2019-06-26T22:31:44.279Z,12.25
2019-06-26T22:34:14.948Z,13.22
2019-06-26T22:36:51.683Z,11.18
2019-06-26T22:39:18.020Z,12.43
2019-06-26T22:41:48.950Z,12.25
2019-06-26T22:44:19.498Z,13.23
2019-06-26T22:46:50.103Z,11.77
2019-06-26T22:49:20.621Z,12.07
2019-06-26T22:51:51.226Z,12.45
2019-06-26T22:54:21.803Z,12.27
2019-06-26T22:56:52.323Z,12.07
2019-06-26T22:59:23.196Z,12.30
2019-06-26T23:01:53.793Z,13.30
2019-06-26T23:04:24.338Z,12.00
2019-06-26T23:06:54.902Z,12.95
2019-06-26T23:09:26.229Z,12.23
2019-06-26T23:11:56.776Z,12.20
2019-06-26T23:14:27.897Z,13.97
2019-06-26T23:16:58.449Z,14.18
2019-06-26T23:19:29.092Z,15.53
2019-06-26T23:22:00.325Z,12.30
2019-06-26T23:24:30.938Z,12.90
2019-06-26T23:27:01.597Z,12.20
2019-06-26T23:29:32.316Z,12.75
2019-06-26T23:32:03.504Z,16.07
2019-06-26T23:34:34.294Z,13.22
2019-06-26T23:37:05.480Z,14.07
2019-06-26T23:39:36.062Z,13.83
2019-06-26T23:42:06.707Z,13.38
2019-06-26T23:44:37.580Z,15.53
2019-06-26T23:47:08.207Z,13.70
2019-06-26T23:49:38.933Z,14.55
2019-06-26T23:52:09.541Z,12.73
2019-06-26T23:54:40.196Z,13.13
2019-06-26T23:57:11.013Z,14.13
2019-06-26T23:59:41.516Z,12.73
